Talmage, Pennsylvania
Current Conditions -  °F | °C
As of 12:53 PM on Monday 24 Nov 2014 (Local Time) from KLNS Reporting Station
Few Clouds Few Clouds  
Wind Chill: 69°   Ceiling: Unl
Heat Index: 69°   Visibility: 10mi
Dew Point: 54°   Wind: 18mph
Humidity: 58%   Direction: 210°SSW
Pressure: 29.57"   Gusts: 35mph
Location:  40°N, 76.21°W
Report Text: KLNS 241753Z 21016G30KT 10SM FEW032 21/12 A2957 RMK AO2 PK WND 20030/1744 SLP011 T02060122 10206 20167 58022
Loading
Personal Weather Stations






























Interactive Weather Map New forecast layout! Learn more

10-Day Weather Forecast

Advertisements
Track Severe Weather on mobile